• Join FlightAware (Why Join?)
  • Login
  • US Flag 
01:34PM EST


 

Airport Tracker/Info


-or-


 

Live Flight TrackerFlight Track Log ✈ N6745M ✈ 20-May-2013 ✈ KHKS - KEET

Flight Track Log - Related Links

Times and Time Zones

All times are in EDT time to prevent confusion due to time zone crossing. See the N6745M flight status page for this flight to view local times or setup timezone preferences in your user account.

Time Position Orientation Groundspeed Altitude Reporting Facility
EDT Latitude Longitude Course Direction KTS MPH feet Rate Location/Type
03:35PM 32.4109 -89.9006 68° East  Level FlightAware Approximate
03:36PM 32.4260 -89.8485 72° East  Level FlightAware Approximate
03:36PM 32.4206 -89.9317 77° East 147 169 6,500  Level Memphis Center
03:37PM 32.4400 -89.7960 72° East  Level FlightAware Approximate
03:37PM 32.4372 -89.8797 69° East 152 175 7,200  Level Memphis Center
03:38PM 32.4540 -89.7435 72° East  Level FlightAware Approximate
03:38PM 32.4411 -89.8356 84° East 158 182 7,800  Level Memphis Center
03:39PM 32.4680 -89.6910 72° East  Level FlightAware Approximate
03:39PM 32.4408 -89.7861 90° East 158 182 8,100  Level Memphis Center
03:40PM 32.4820 -89.6384 72° East  Level FlightAware Approximate
03:40PM 32.4447 -89.7294 85° East 158 182 8,100  Level Memphis Center
03:41PM 32.4931 -89.5849 77° East  Level FlightAware Approximate
03:41PM 32.4444 -89.6706 90° East 163 188 8,100  Level Memphis Center
03:42PM 32.5038 -89.5313 77° East  Level FlightAware Approximate
03:42PM 32.4464 -89.6114 88° East 168 193 8,100  Level Memphis Center
03:43PM 32.4397 -89.5572 98° East 168 193 8,100  Level Memphis Center
03:44PM 32.4331 -89.4983 98° East 168 193 8,100  Level Memphis Center
03:45PM 32.4306 -89.4392 93° East 173 199 8,100  Level Memphis Center
03:46PM 32.4258 -89.3875 96° East 178 205 8,100  Level Memphis Center
03:47PM 32.4214 -89.3311 95° East 178 205 8,100  Level Memphis Center
03:48PM 32.4167 -89.2719 95° East 178 205 8,100  Level Memphis Center
03:49PM 32.4142 -89.2156 93° East 178 205 8,100  Level Memphis Center
03:50PM 32.4094 -89.1589 96° East 178 205 8,100  Level Memphis Center
03:51PM 32.4025 -89.1000 98° East 178 205 8,100  Level Memphis Center
03:52PM 32.3978 -89.0458 96° East 178 205 8,100  Level Memphis Center
03:53PM 32.3950 -88.9844 93° East 178 205 8,100  Level Memphis Center
03:54PM 32.3903 -88.9281 96° East 178 205 8,100  Level Memphis Center
03:55PM 32.3853 -88.8714 96° East 178 205 8,100  Level Memphis Center
03:56PM 32.3825 -88.8125 93° East 178 205 8,100  Level Memphis Center
03:57PM 32.3986 -88.7531 72° East 178 205 8,100  Level Memphis Center
03:58PM 32.4250 -88.7008 59° Northeast 178 205 8,100  Level Memphis Center
03:59PM 32.4472 -88.6464 64° Northeast 178 205 8,100 60 Level Memphis Center
04:01PM 32.4688 -88.5808 69° East  Level FlightAware Approximate
04:08PM 32.5977 -88.2226 63° Northeast  Level FlightAware Approximate
04:08PM 32.6331 -88.1825 63° Northeast 180 207 9,200  Level Atlanta Center
04:09PM 32.6190 -88.1731 63° Northeast  Level FlightAware Approximate
04:09PM 32.6556 -88.1317 62° Northeast 171 197 9,100  Level Atlanta Center
04:10PM 32.6403 -88.1235 63° Northeast  Level FlightAware Approximate
04:10PM 32.6742 -88.0758 68° East 171 197 9,100  Level Atlanta Center
04:11PM 32.6615 -88.0738 63° Northeast  Level FlightAware Approximate
04:11PM 32.6967 -88.0250 62° Northeast 171 197 9,100  Level Atlanta Center
04:12PM 32.6828 -88.0242 63° Northeast  Level FlightAware Approximate
04:12PM 32.7197 -87.9519 69° East 195 224 9,100  Level Atlanta Center
04:13PM 32.7040 -87.9745 63° Northeast  Level FlightAware Approximate
04:13PM 32.7444 -87.8989 61° Northeast 189 217 9,100  Level Atlanta Center
04:14PM 32.7650 -87.8428 66° East 184 212 9,100  Level Atlanta Center
04:15PM 32.7875 -87.7869 64° Northeast 184 212 9,100  Level Atlanta Center
04:16PM 32.8081 -87.7336 65° Northeast 184 212 9,200 -60 Climbing Atlanta Center
04:17PM 32.8328 -87.6728 64° Northeast 184 212 9,000 -240 Descending Atlanta Center
04:18PM 32.8575 -87.6144 63° Northeast 195 224 8,700 -300 Descending Atlanta Center
04:19PM 32.8711 -87.5756 67° East 199 229 8,500 -300 Descending Atlanta Center
04:20PM 32.8956 -87.5169 64° Northeast 197 227 8,300 -300 Descending Atlanta Center
04:21PM 32.9203 -87.4586 63° Northeast 199 229 7,900 -600 Descending Atlanta Center
04:22PM 32.9453 -87.3878 67° East 215 247 7,200 -600 Descending Atlanta Center
04:23PM 32.9678 -87.3244 67° East 217 250 6,700 -540 Descending Atlanta Center
04:24PM 32.9944 -87.2608 63° Northeast 217 250 6,200 -600 Descending Atlanta Center
04:25PM 33.0192 -87.1900 67° East 215 247 5,500 -540 Descending Atlanta Center
04:26PM 33.0503 -87.1169 63° Northeast 215 247 5,100 -600 Descending Atlanta Center
04:27PM 33.0728 -87.0581 65° Northeast 209 241 4,300 -840 Descending Atlanta Center
04:28PM 33.0950 -86.9994 66° East 203 234 3,500 -660 Descending Atlanta Center
04:29PM 33.1172 -86.9381 67° East 194 223 3,000 -540 Descending Atlanta Center